Welcome to our new website - Welkom op onze vernieuwde website - Bienvenue sur notre nouveau site web - Willkommen auf unserer neuen Website
Check our progress frequently. Prüfen Sie unsere Fortschritte regelmäßig. Consultez notre progression fréquemment. Komt u straks nog eens

KNMI Weersverwachting is alleen beschikbaar in de Nederlandse Taal, Ongeacht welke taal u kiest.
KNMI weather forecast is only available in the Dutch language, No matter what language you choose.







Meteo Oudkarspel - De weer weet site voor Langedijk

Blijf op de hoogte van het actuele weer, Keep up to date with the current weather.



Lokaal brandgevaar
CBI


Regionaal natuur brand risico: Meer informatie


Mijn Webcam 1 Meer informatie My webcam


Mijn Webcam 2 Meer informatie My webcam 2


Onweer radar Meer informatie blitzortung!


Regen radar Meer informatie rain snow radar


Bezoek onze andere website:

Template - Davis WeatherLink Version
Vantage Veu

Template - Meteotemplate

Template - HomeWeatherStation

PDøROK Multimedia

Meteo Broek Op Langedijk

Visual FM - Serious Internet RadioVisual FM - Serious Internet Radio

Lief LangedijkLief Langedijk

Dé fietsenmaker van Langedijk en omstrekenAxel Noort dé fietsenmaker

Ijsvereniging Volharding

Meteo Tuitjenhorn

Meteo Delfzijl

Weerstation Noordbergum

Weerstation ParkstadWeerstation Parkstad



Het weer levert geen direct gevaar op.    Er zijn geen waarschuwingen afgegeven.

METAR rapporten vliegvelden

   
EHKD - De Kooy (navy), Netherlands
Afstand tot: N 23 km
Gewijzigd: 15-Jul-2020 10:25
Gedeeltelijk bewolkt  
Gedeeltelijk bewolkt  
   Wind: NW 9.3 km/h
Wind: NW 9.3 km/h
Temperatuur: 17°C
Dauwpunt: 10°C
Vochtigheid: 64%
Barometer: 1014 hPa
Bewolking: Gedeeltelijk bewolkt
Zicht: meer dan 10 km
Bewolking: Gedeeltelijk bewolkt 29000 ft
EHKD 150825Z AUTO 32005KT 260V040 9999 SCT290 17/10 Q1014 BLU 32007KT 9999 FEW020
EHAM - Amsterdam/Schiph, Netherlands
Afstand tot: Z 44 km
Gewijzigd: 15-Jul-2020 10:25
Gedeeltelijk bewolkt  
Gedeeltelijk bewolkt  
   Wind: NNW 13 km/h
Wind: NNW 13 km/h
Temperatuur: 17°C
Dauwpunt: 11°C
Vochtigheid: 68%
Barometer: 1014 hPa
Bewolking: Gedeeltelijk bewolkt
Zicht: meer dan 10 km
Bewolking: Licht bewolkt 2200 ft,
Gedeeltelijk bewolkt 4300 ft
EHAM 150825Z 33007KT 9999 FEW022 SCT043 17/11 Q1014 NOSIG
EHQE - Hoorn-A Sea, Netherlands
Afstand tot: WNW 50 km
Gewijzigd: 15-Jul-2020 10:25
Gedeeltelijk bewolkt  
Gedeeltelijk bewolkt  
   Wind: Zuiden 7.4 km/h
Wind: Zuiden 7.4 km/h
Temperatuur: 15°C
Dauwpunt: 10°C
Vochtigheid: 72%
Barometer: 1014 hPa
Bewolking: Gedeeltelijk bewolkt
Zicht: meer dan 10 km
Bewolking: Gedeeltelijk bewolkt
EHQE 150825Z AUTO 19004KT 9999 NSC 15/10 Q1014
EHVL - Vlieland Island, Netherlands
Afstand tot: N 58 km
Gewijzigd: 15-Jul-2020 10:25
Grotendeels bewolkt  
Grotendeels bewolkt  
   Wind: NW 11.1 km/h
Wind: NW 11.1 km/h
Temperatuur: 16°C
Dauwpunt: 12°C
Vochtigheid: 77%
Barometer: 1014 hPa
Bewolking: Grotendeels bewolkt
Zicht: meer dan 10 km
Bewolking: Licht bewolkt 5800 ft,
Grotendeels bewolkt 32000 ft
EHVL 150825Z AUTO 32006KT 9999 FEW058 BKN320 16/12 Q1014 BLU
EHLW - Leeuwarden Rnlaf, Netherlands
Afstand tot: NO 85 km
Gewijzigd: 15-Jul-2020 10:44
Grotendeels bewolkt  
Grotendeels bewolkt  
   Wind: Noorden 7.4 km/h
Wind: Noorden 7.4 km/h
Temperatuur: 16°C
Dauwpunt: 13°C
Vochtigheid: 83%
Barometer: 1014 hPa
Bewolking: Grotendeels bewolkt
Zicht: meer dan 10 km
Bewolking: Licht bewolkt 1200 ft,
Gedeeltelijk bewolkt 1700 ft,
Grotendeels bewolkt 3900 ft
EHLW 150844Z AUTO 01004KT 320V090 9999 FEW012 SCT017 BKN039 16/13 Q1014 WHT 29006KT 9999 FEW020 SCT025 BKN035
EHRD - Rotterdam Airpor, Netherlands
Afstand tot: ZZW 88 km
Gewijzigd: 15-Jul-2020 10:25
Gedeeltelijk bewolkt  
Gedeeltelijk bewolkt  
   Wind: Westen 9.3 km/h
Wind: Westen 9.3 km/h
Temperatuur: 17°C
Dauwpunt: 12°C
Vochtigheid: 73%
Barometer: 1014 hPa
Bewolking: Gedeeltelijk bewolkt
Zicht: meer dan 10 km
Bewolking: Gedeeltelijk bewolkt
EHRD 150825Z AUTO 28005KT 220V340 9999 NSC 17/12 Q1014 NOSIG
EHKV - K14-Fa-1c Sea, Netherlands
Afstand tot: NW 100 km
Gewijzigd: 15-Jul-2020 10:25
Gedeeltelijk bewolkt  
Gedeeltelijk bewolkt  
   Wind: ZZW 11.1 km/h
Wind: ZZW 11.1 km/h
Temperatuur: 15°C
Dauwpunt: 11°C
Vochtigheid: 77%
Barometer: 1015 hPa
Bewolking: Gedeeltelijk bewolkt
Zicht: meer dan 10 km
Bewolking: Gedeeltelijk bewolkt 1400 ft
EHKV 150825Z AUTO 20006KT 9999 SCT014 15/11 Q1015
EHMG - L9-Ff-1 Sea, Netherlands
Afstand tot: N 101 km
Gewijzigd: 15-Jul-2020 10:25
Grotendeels bewolkt  
Grotendeels bewolkt  
   Wind: WNW 18.5 km/h
Wind: WNW 18.5 km/h
Temperatuur: 15°C
Dauwpunt: 11°C
Vochtigheid: 77%
Barometer: 1014 hPa
Bewolking: Grotendeels bewolkt
Zicht: meer dan 10 km
Bewolking: Licht bewolkt 1700 ft,
Gedeeltelijk bewolkt 3400 ft,
Grotendeels bewolkt 3800 ft
EHMG 150825Z AUTO 30010KT 220V020 9999 FEW017 SCT034 BKN038 15/11 Q1014
EHDL - Deelen Rnlafb, Netherlands
Afstand tot: ZO 102 km
Gewijzigd: 15-Jul-2020 10:25
Helder  
Helder  
   Wind: WNW 16.7 km/h
Wind: WNW 16.7 km/h
Temperatuur: 17°C
Dauwpunt: 11°C
Vochtigheid: 68%
Barometer: 1014 hPa
Bewolking: Helder
Zicht: meer dan 10 km
Bewolking: Helder
EHDL 150825Z AUTO 30009KT 250V020 9999 NCD 17/11 Q1014 BLU
EHPG - P11-B Sea, Netherlands
Afstand tot: WZW 106 km
Gewijzigd: 15-Jul-2020 10:25
Gedeeltelijk bewolkt  
Gedeeltelijk bewolkt  
   Wind: varieert 3.7 km/h
Wind: varieert 3.7 km/h
Temperatuur: 16°C
Dauwpunt: 12°C
Vochtigheid: 77%
Barometer: 1014 hPa
Bewolking: Gedeeltelijk bewolkt
Zicht: meer dan 10 km
Bewolking: Gedeeltelijk bewolkt
EHPG 150825Z AUTO VRB02KT 9999 NSC 16/12 Q1014
EHMA - Awg-1 Sea, Netherlands
Afstand tot: NO 116 km
Gewijzigd: 15-Jul-2020 10:25
Heavy Drizzle, Grotendeels bewolkt  
Heavy Drizzle, Grotendeels bewolkt  
   Wind: Noorden 13 km/h
Wind: Noorden 13 km/h
Temperatuur: 15°C
Dauwpunt: 11°C
Vochtigheid: 77%
Barometer: 1013 hPa
Bewolking: Grotendeels bewolkt
Zicht: meer dan 10 km
Bewolking: Licht bewolkt 1400 ft,
Gedeeltelijk bewolkt 3800 ft,
Grotendeels bewolkt 4300 ft
EHMA 150825Z AUTO 35007KT 9999 +DZ FEW014 SCT038 BKN043 15/11 Q1013
EHSC - Goeree Le Sea, Netherlands
Afstand tot: ZW 116 km
Gewijzigd: 15-Jul-2020 10:25
  
  
   Wind: Westen 11.1 km/h
Wind: Westen 11.1 km/h
Temperatuur: 16°C
Dauwpunt: 11°C
Vochtigheid: 72%
Barometer: 1014 hPa
Zicht: meer dan 10 km
EHSC 150825Z AUTO 27006KT 9999 ///////// 16/11 Q1014 W18/H5
EHJR - K13-A Sea, Netherlands
Afstand tot: WNW 120 km
Gewijzigd: 15-Jul-2020 10:25
  
  
   Wind: Westen 3.7 km/h
Wind: Westen 3.7 km/h
Temperatuur: 15°C
Dauwpunt: 12°C
Vochtigheid: 82%
Barometer: 1014 hPa
EHJR 150825Z AUTO 27002KT //// // ///////// 15/12 Q1014 RE// W///H6
EHGG - Groningen/Eelde, Netherlands
Afstand tot: ONO 126 km
Gewijzigd: 15-Jul-2020 10:25
Grotendeels bewolkt  
Grotendeels bewolkt  
   Wind: WNW 7.4 km/h
Wind: WNW 7.4 km/h
Temperatuur: 15°C
Dauwpunt: 13°C
Vochtigheid: 88%
Barometer: 1013 hPa
Bewolking: Grotendeels bewolkt
Zicht: meer dan 10 km
Bewolking: Gedeeltelijk bewolkt 3900 ft,
Grotendeels bewolkt 4300 ft
EHGG 150825Z AUTO 30004KT 260V340 9999 SCT039 BKN043 15/13 Q1013 TEMPO 7000 -SHRA FEW020TCU
EHGR - Gilze-Rijen Rnla, Netherlands
Afstand tot: Z 128 km
Gewijzigd: 15-Jul-2020 10:25
Licht bewolkt  
Licht bewolkt  
   Wind: Westen 9.3 km/h
Wind: Westen 9.3 km/h
Temperatuur: 17°C
Dauwpunt: 10°C
Vochtigheid: 64%
Barometer: 1015 hPa
Bewolking: Licht bewolkt
Zicht: meer dan 10 km
Bewolking: Licht bewolkt 2900 ft
EHGR 150825Z AUTO 28005KT 230V030 9999 FEW029 17/10 Q1015 BLU TEMPO 34005KT
EHSA - Euro Platform, Netherlands
Afstand tot: ZW 130 km
Gewijzigd: 15-Jul-2020 10:25
  
  
   Wind: varieert 1.9 km/h
Wind: varieert 1.9 km/h
Temperatuur: 17°C
Dauwpunt: 12°C
Vochtigheid: 73%
Barometer: 1014 hPa
Zicht: meer dan 10 km
EHSA 150825Z AUTO VRB01KT 9999 ///////// 17/12 Q1014 W15/H5
EHVK - Volkel Rnlafb, Netherlands
Afstand tot: ZZO 135 km
Gewijzigd: 15-Jul-2020 10:25
Grotendeels bewolkt  
Grotendeels bewolkt  
   Wind: NNW 9.3 km/h
Wind: NNW 9.3 km/h
Temperatuur: 17°C
Dauwpunt: 10°C
Vochtigheid: 64%
Barometer: 1014 hPa
Bewolking: Grotendeels bewolkt
Zicht: meer dan 10 km
Bewolking: Grotendeels bewolkt 2900 ft,
Grotendeels bewolkt 3400 ft
EHVK 150825Z AUTO 34005KT 290V020 9999 BKN029 BKN034 17/10 Q1014 BLU TEMPO 33007KT
EHWO - Woensdrecht Rnla, Netherlands
Afstand tot: ZZW 144 km
Gewijzigd: 15-Jul-2020 10:25
Bewolking  
Bewolking  
   Wind: Westen 7.4 km/h
Wind: Westen 7.4 km/h
Temperatuur: 17°C
Dauwpunt: 10°C
Vochtigheid: 64%
Barometer: 1015 hPa
Bewolking: Bewolking
Zicht: meer dan 10 km
Bewolking: Bewolking 29000 ft
EHWO 150825Z AUTO 26004KT 200V010 9999 OVC290/// 17/10 Q1015 BLU NOSIG
EHEH - Eindhoven Rnlafb, Netherlands
Afstand tot: ZZO 146 km
Gewijzigd: 15-Jul-2020 10:25
Gedeeltelijk bewolkt  
Gedeeltelijk bewolkt  
   Wind: NNW 11.1 km/h
Wind: NNW 11.1 km/h
Temperatuur: 18°C
Dauwpunt: 11°C
Vochtigheid: 64%
Barometer: 1015 hPa
Bewolking: Gedeeltelijk bewolkt
Zicht: meer dan 10 km
Bewolking: Licht bewolkt 2900 ft,
Gedeeltelijk bewolkt 3200 ft
EHEH 150825Z AUTO 33006KT 240V360 9999 FEW029 SCT032 18/11 Q1015 BLU NOSIG
EDLV - Niederrhein, Germany
Afstand tot: ZO 154 km
Gewijzigd: 15-Jul-2020 10:20
Gedeeltelijk bewolkt  
Gedeeltelijk bewolkt  
   Wind: NNW 9.3 km/h
Wind: NNW 9.3 km/h
Temperatuur: 16°C
Dauwpunt: 10°C
Vochtigheid: 68%
Barometer: 1015 hPa
Bewolking: Gedeeltelijk bewolkt
Zicht: meer dan 10 km
Bewolking: Gedeeltelijk bewolkt 3000 ft
EDLV 150820Z 34005KT 300V030 9999 SCT030 16/10 Q1015
 

Script ontwikkeld door  Saratoga-weather.org Aangepast voor de template door  Weerstation Leuven

U vindt ons ook hier:

Vereniging voor Weerkunde en Klimatologie

Het Weer Aktueel

WOW Nederland KNMI

UK Metoffice

European Weather Network

WeatherCloud

Weather Underground

Benelux Weer Netwerk

AWEKAS

WeatherlinkIP

Citizen Weather Observer Program (CWOP)

HAMweather, WeatherForYou, PWS Weather

        

Apparatuur in gebruik:

Weerstation
Davis - Vantage Veu

Weerprogramma
Meteobridge

Weercomputer
Carambola2 - MeteroBridge Pro (black)

Webleverancier
1Eurohosting

Hardwareleverancier 1
Uurwerk- & Meteospecialist Vlasma

Hardwareleverancier 2
Weerhuisje

Davis - Vantage Veu

Meteobridge

Carambola2 - MeteroBridge Pro (black)

1Eurohosting

Uurwerk- & Meteospecialist Vlasma

Weerhuisje


Alles over het weer rondom het weerstation van Meteo Oudkarspel, vind je hier. Dus alles onder 1 dak.

Everything about the weather around the Meteo Oudkarspel weather station can be found here. So everything under one roof..

Dus kom regelmatig terug, So come back regularly.


# #---------------------- version history # 3.20 2015-10-12 release 2.8b version